createdAt,value
2018-11-23T00:01:05.496Z,12.77
2018-11-23T00:03:09.215Z,13.83
2018-11-23T00:05:13.103Z,14.03
2018-11-23T00:07:16.770Z,14.93
2018-11-23T00:09:20.718Z,12.53
2018-11-23T00:11:24.383Z,14.83
2018-11-23T00:13:28.079Z,14.03
2018-11-23T00:15:31.754Z,14.90
2018-11-23T00:17:35.343Z,14.13
2018-11-23T00:19:38.974Z,14.87
2018-11-23T00:21:42.578Z,15.33
2018-11-23T00:23:46.186Z,13.30
2018-11-23T00:25:49.859Z,13.60
2018-11-23T00:27:54.163Z,14.30
2018-11-23T00:29:57.926Z,13.93
2018-11-23T00:32:01.651Z,14.20
2018-11-23T00:34:05.503Z,14.30
2018-11-23T00:36:09.103Z,13.20
2018-11-23T00:38:12.891Z,14.00
2018-11-23T00:40:22.916Z,13.83
2018-11-23T00:42:26.491Z,14.43
2018-11-23T00:44:30.217Z,15.40
2018-11-23T00:46:34.011Z,15.20
2018-11-23T00:48:37.592Z,11.97
2018-11-23T00:50:41.939Z,15.50
2018-11-23T00:52:46.374Z,14.17
2018-11-23T00:54:49.979Z,15.37
2018-11-23T00:56:53.693Z,14.63
2018-11-23T00:58:57.251Z,13.80
2018-11-23T01:01:02.021Z,14.40
2018-11-23T01:03:06.476Z,12.87
2018-11-23T01:05:11.207Z,13.97
2018-11-23T01:07:14.904Z,13.87
2018-11-23T01:09:18.543Z,13.43
2018-11-23T01:11:22.151Z,14.87
2018-11-23T01:13:25.767Z,13.17
2018-11-23T01:15:29.430Z,13.47
2018-11-23T01:17:33.039Z,14.13
2018-11-23T01:19:36.718Z,12.53
2018-11-23T01:21:40.395Z,14.43
2018-11-23T01:23:44.075Z,13.67
2018-11-23T01:25:47.763Z,13.33
2018-11-23T01:27:52.637Z,14.17
2018-11-23T01:29:56.260Z,14.70
2018-11-23T01:32:00.077Z,14.30
2018-11-23T01:34:03.732Z,14.20
2018-11-23T01:36:07.380Z,13.73
2018-11-23T01:38:11.050Z,13.83
2018-11-23T01:40:17.503Z,13.50
2018-11-23T01:42:21.243Z,13.83
2018-11-23T01:44:24.891Z,13.53
2018-11-23T01:46:28.518Z,14.53
2018-11-23T01:48:32.197Z,14.07
2018-11-23T01:50:35.867Z,13.87
2018-11-23T01:52:39.655Z,13.27
2018-11-23T01:54:43.335Z,13.97
2018-11-23T01:56:47.021Z,14.37
2018-11-23T01:58:50.791Z,14.03
2018-11-23T02:00:54.351Z,14.07
2018-11-23T02:02:58.248Z,12.60
2018-11-23T02:05:01.943Z,13.73
2018-11-23T02:07:05.765Z,13.60
2018-11-23T02:09:09.463Z,15.57
2018-11-23T02:11:13.039Z,13.50
2018-11-23T02:13:16.746Z,14.13
2018-11-23T02:15:21.520Z,13.57
2018-11-23T02:17:25.200Z,13.23
2018-11-23T02:19:28.935Z,13.90
2018-11-23T02:21:32.566Z,13.53
2018-11-23T02:23:36.204Z,14.23
2018-11-23T02:25:40.787Z,13.83
2018-11-23T02:27:44.426Z,14.00
2018-11-23T02:29:48.843Z,13.83
2018-11-23T02:31:52.436Z,15.00
2018-11-23T02:33:56.998Z,14.23
2018-11-23T02:36:00.635Z,13.63
2018-11-23T02:38:04.277Z,13.40
2018-11-23T02:40:08.700Z,13.90
2018-11-23T02:42:12.363Z,15.40
2018-11-23T02:44:15.975Z,13.90
2018-11-23T02:46:19.888Z,13.20
2018-11-23T02:48:24.727Z,12.67
2018-11-23T02:50:28.318Z,15.70
2018-11-23T02:52:31.995Z,13.93
2018-11-23T03:01:07.311Z,14.87
2018-11-23T03:03:10.851Z,14.27
2018-11-23T03:05:16.634Z,14.23
2018-11-23T03:07:20.291Z,14.83
2018-11-23T03:09:23.921Z,13.40
2018-11-23T03:11:27.559Z,14.53
2018-11-23T03:13:31.194Z,14.20
2018-11-23T03:15:34.848Z,15.47
2018-11-23T03:17:39.355Z,15.23
2018-11-23T03:19:43.011Z,14.33
2018-11-23T03:21:46.596Z,13.70
2018-11-23T03:23:50.452Z,14.53
2018-11-23T03:25:54.147Z,14.00
2018-11-23T03:27:57.768Z,15.07
2018-11-23T03:30:01.359Z,14.30
2018-11-23T03:32:05.226Z,15.00
2018-11-23T03:34:09.381Z,14.93
2018-11-23T03:36:13.077Z,14.40
2018-11-23T03:38:16.747Z,12.83
2018-11-23T03:40:20.403Z,14.83
2018-11-23T03:42:23.975Z,15.80
2018-11-23T03:44:27.587Z,14.33
2018-11-23T03:46:31.157Z,15.63
2018-11-23T03:48:34.727Z,15.73
2018-11-23T03:50:38.300Z,14.73
2018-11-23T03:52:43.124Z,14.50
2018-11-23T03:54:46.779Z,14.80
2018-11-23T03:56:50.499Z,14.77
2018-11-23T03:58:54.148Z,14.70
2018-11-23T04:00:57.732Z,14.97
2018-11-23T04:03:01.583Z,15.60
2018-11-23T04:05:06.196Z,15.70
2018-11-23T04:07:10.043Z,14.17
2018-11-23T04:09:13.795Z,14.27
2018-11-23T04:11:17.518Z,16.17
2018-11-23T04:13:21.076Z,14.33
2018-11-23T04:15:25.958Z,14.57
2018-11-23T04:17:29.600Z,14.27
2018-11-23T04:19:33.171Z,15.23
2018-11-23T04:21:36.859Z,15.63
2018-11-23T04:23:40.495Z,14.80
2018-11-23T04:25:44.045Z,15.13
2018-11-23T04:27:47.649Z,14.63
2018-11-23T04:29:51.251Z,12.93
2018-11-23T04:31:54.975Z,15.40
2018-11-23T04:33:58.628Z,16.27
2018-11-23T04:36:02.335Z,15.13
2018-11-23T04:38:06.013Z,14.20
2018-11-23T04:40:10.883Z,15.83
2018-11-23T04:42:14.443Z,15.77
2018-11-23T04:44:18.139Z,16.93
2018-11-23T04:46:21.825Z,15.90
2018-11-23T04:48:25.419Z,15.77
2018-11-23T04:50:29.044Z,16.33
2018-11-23T04:52:32.695Z,16.40
2018-11-23T04:54:36.491Z,15.90
2018-11-23T04:56:40.123Z,17.27
2018-11-23T04:58:44.919Z,17.10
2018-11-23T05:00:48.651Z,17.20
2018-11-23T05:02:52.227Z,16.40
2018-11-23T05:04:56.423Z,16.63
2018-11-23T05:07:00.063Z,16.23
2018-11-23T05:09:04.823Z,15.63
2018-11-23T05:11:08.481Z,15.87
2018-11-23T05:13:12.064Z,14.93
2018-11-23T05:15:16.978Z,17.30
2018-11-23T05:17:21.212Z,17.17
2018-11-23T05:19:24.799Z,16.23
2018-11-23T05:21:28.413Z,16.87
2018-11-23T05:23:32.083Z,16.73
2018-11-23T05:25:35.815Z,17.47
2018-11-23T05:27:39.452Z,17.23
2018-11-23T05:29:43.127Z,16.10
2018-11-23T05:31:46.683Z,16.50
2018-11-23T05:33:50.355Z,16.33
2018-11-23T05:35:54.094Z,17.10
2018-11-23T05:37:57.803Z,16.33
2018-11-23T05:40:01.464Z,17.50
2018-11-23T05:42:05.211Z,16.93
2018-11-23T05:44:08.843Z,16.40
2018-11-23T05:46:12.487Z,17.07
2018-11-23T05:48:16.169Z,16.67
2018-11-23T05:50:23.138Z,17.20
2018-11-23T05:52:26.703Z,17.07
2018-11-23T05:54:30.373Z,16.23
2018-11-23T05:56:33.946Z,15.80
2018-11-23T05:58:37.499Z,15.53
2018-11-23T06:00:41.203Z,17.23
2018-11-23T06:02:44.879Z,16.10
2018-11-23T06:04:48.519Z,16.93
2018-11-23T06:06:52.247Z,16.93
2018-11-23T06:08:55.804Z,16.57
2018-11-23T06:10:59.395Z,17.40
2018-11-23T06:13:03.039Z,17.33
2018-11-23T06:15:09.414Z,15.73
2018-11-23T06:17:13.031Z,15.60
2018-11-23T06:19:16.679Z,28.17
2018-11-23T06:21:20.275Z,16.70
2018-11-23T06:23:23.804Z,17.67
2018-11-23T06:25:32.432Z,16.63
2018-11-23T06:27:36.040Z,16.63
2018-11-23T06:29:39.651Z,16.63
2018-11-23T06:31:43.358Z,18.00
2018-11-23T06:33:48.223Z,16.90
2018-11-23T06:35:51.879Z,16.43
2018-11-23T06:37:55.499Z,16.30
2018-11-23T06:39:59.543Z,16.07
2018-11-23T06:42:03.212Z,17.17
2018-11-23T06:44:06.888Z,16.10
2018-11-23T06:46:11.743Z,18.03
2018-11-23T06:48:15.328Z,16.17
2018-11-23T06:50:19.804Z,17.47
2018-11-23T06:52:23.435Z,16.33
2018-11-23T06:55:51.263Z,17.20
2018-11-23T06:57:54.892Z,15.57
2018-11-23T06:59:58.459Z,17.53
2018-11-23T07:02:02.121Z,17.03
2018-11-23T07:04:05.742Z,15.37
2018-11-23T07:06:09.361Z,17.53
2018-11-23T07:08:13.330Z,15.63
2018-11-23T07:10:17.029Z,18.57
2018-11-23T07:12:20.648Z,16.73
2018-11-23T07:14:24.291Z,18.30
2018-11-23T07:16:27.915Z,16.97
2018-11-23T07:18:31.509Z,16.83
2018-11-23T07:20:35.255Z,16.13
2018-11-23T07:22:40.187Z,17.07
2018-11-23T07:24:44.588Z,17.27
2018-11-23T07:26:48.239Z,17.37
2018-11-23T07:28:51.811Z,17.47
2018-11-23T07:31:02.026Z,13.93
2018-11-23T07:32:59.467Z,16.60
2018-11-23T07:35:03.124Z,16.37
2018-11-23T07:37:07.018Z,16.43
2018-11-23T07:39:21.829Z,17.90
2018-11-23T07:41:37.665Z,17.07
2018-11-23T07:43:41.307Z,17.03
2018-11-23T07:45:45.635Z,17.20
2018-11-23T07:47:49.279Z,15.93
2018-11-23T07:49:52.941Z,16.47
2018-11-23T07:51:56.590Z,16.17
2018-11-23T07:54:00.154Z,16.53
2018-11-23T07:56:03.747Z,16.90
2018-11-23T07:58:08.459Z,16.43
2018-11-23T08:00:17.372Z,15.83
2018-11-23T08:02:20.955Z,15.53
2018-11-23T08:04:24.562Z,16.43
2018-11-23T08:06:28.175Z,14.13
2018-11-23T08:08:32.329Z,16.43
2018-11-23T08:10:35.104Z,15.00
2018-11-23T08:12:39.448Z,17.07
2018-11-23T08:14:43.135Z,16.60
2018-11-23T08:16:46.759Z,15.63
2018-11-23T08:18:51.041Z,16.60
2018-11-23T08:20:54.593Z,11.73
2018-11-23T08:22:58.155Z,16.83
2018-11-23T08:25:01.827Z,15.93
2018-11-23T08:27:05.683Z,17.00
2018-11-23T08:29:09.335Z,16.33
2018-11-23T08:31:12.994Z,16.47
2018-11-23T08:33:16.574Z,17.00
2018-11-23T08:35:20.279Z,17.03
2018-11-23T08:37:23.891Z,18.30
2018-11-23T08:39:27.523Z,18.20
2018-11-23T08:41:31.193Z,16.73
2018-11-23T08:50:09.151Z,15.73
2018-11-23T08:52:12.772Z,16.17
2018-11-23T08:54:16.323Z,14.63
2018-11-23T08:56:19.891Z,17.07
2018-11-23T08:58:23.502Z,17.37
2018-11-23T09:00:28.232Z,15.73
2018-11-23T09:02:31.814Z,16.57
2018-11-23T09:04:35.463Z,17.30
2018-11-23T09:06:39.098Z,17.87
2018-11-23T09:08:42.939Z,16.73
2018-11-23T09:10:46.694Z,16.50
2018-11-23T09:12:52.247Z,16.23
2018-11-23T09:14:56.034Z,17.03
2018-11-23T09:16:59.782Z,16.87
2018-11-23T09:19:04.363Z,17.10
2018-11-23T09:21:08.491Z,16.93
2018-11-23T09:23:12.330Z,16.77
2018-11-23T09:25:18.462Z,15.70
2018-11-23T09:27:22.441Z,17.60
2018-11-23T09:29:26.874Z,16.50
2018-11-23T09:31:30.686Z,16.23
2018-11-23T09:41:10.594Z,16.20
2018-11-23T09:43:14.442Z,15.83
2018-11-23T09:45:19.539Z,16.00
2018-11-23T09:47:23.323Z,16.97
2018-11-23T09:49:27.110Z,17.07
2018-11-23T09:51:30.882Z,18.40
2018-11-23T09:53:34.735Z,17.73
2018-11-23T09:55:38.871Z,16.00
2018-11-23T09:57:42.667Z,18.20
2018-11-23T09:59:46.467Z,17.87
2018-11-23T10:01:50.260Z,17.17
2018-11-23T10:03:54.115Z,17.23
2018-11-23T10:05:57.875Z,17.23
2018-11-23T10:08:04.218Z,17.83
2018-11-23T10:10:09.504Z,16.27
2018-11-23T10:12:13.298Z,17.60
2018-11-23T10:14:17.039Z,17.57
2018-11-23T10:16:21.196Z,18.23
2018-11-23T10:18:25.023Z,16.17
2018-11-23T10:20:30.221Z,18.80
2018-11-23T10:22:34.670Z,17.37
2018-11-23T10:24:38.843Z,17.40
2018-11-23T10:26:42.594Z,16.30
2018-11-23T10:28:46.443Z,17.23
2018-11-23T10:30:50.346Z,17.33
2018-11-23T10:32:55.526Z,17.30
2018-11-23T10:34:59.326Z,17.07
2018-11-23T10:37:03.131Z,16.57
2018-11-23T10:39:07.715Z,18.93
2018-11-23T10:41:11.487Z,13.67
2018-11-23T10:43:15.326Z,18.20
2018-11-23T10:45:21.394Z,17.57
2018-11-23T10:47:25.199Z,18.80
2018-11-23T10:49:29.026Z,15.77
2018-11-23T10:51:32.856Z,18.50
2018-11-23T10:53:36.684Z,17.27
2018-11-23T10:55:41.097Z,18.90
2018-11-23T10:57:44.843Z,18.80
2018-11-23T10:59:48.594Z,17.23
2018-11-23T11:01:57.617Z,18.60
2018-11-23T11:06:12.742Z,17.23
2018-11-23T11:08:16.506Z,18.10
2018-11-23T11:10:20.246Z,16.03
2018-11-23T11:12:24.043Z,18.37
2018-11-23T11:14:27.853Z,18.60
2018-11-23T11:16:31.658Z,17.87
2018-11-23T11:18:35.436Z,19.03
2018-11-23T11:20:39.367Z,18.03
2018-11-23T11:22:43.207Z,18.97
2018-11-23T11:24:46.961Z,18.37
2018-11-23T11:26:50.868Z,19.50
2018-11-23T11:28:54.699Z,19.63
2018-11-23T11:30:58.618Z,18.50
2018-11-23T11:33:02.451Z,18.90
2018-11-23T11:35:07.566Z,18.63
2018-11-23T11:37:11.338Z,18.10
2018-11-23T11:39:18.064Z,20.07
2018-11-23T11:41:19.295Z,18.93
2018-11-23T11:43:23.119Z,18.07
2018-11-23T11:45:26.957Z,20.53
2018-11-23T11:47:30.733Z,20.30
2018-11-23T11:49:34.507Z,19.60
2018-11-23T11:51:38.353Z,20.53
2018-11-23T11:53:42.140Z,19.33
2018-11-23T11:55:45.859Z,20.43
2018-11-23T11:57:50.051Z,19.70
2018-11-23T11:59:53.823Z,19.60
2018-11-23T12:01:57.562Z,20.87
2018-11-23T12:04:01.379Z,18.40
2018-11-23T12:06:05.629Z,19.43
2018-11-23T12:08:09.361Z,24.70
2018-11-23T12:10:18.971Z,21.77
2018-11-23T12:12:23.196Z,20.40
2018-11-23T12:14:27.413Z,20.37
2018-11-23T12:16:31.291Z,20.33
2018-11-23T12:18:35.078Z,22.27
2018-11-23T12:20:38.932Z,21.53
2018-11-23T12:22:42.943Z,20.20
2018-11-23T12:24:46.802Z,20.57
2018-11-23T12:26:50.614Z,21.03
2018-11-23T12:28:54.427Z,21.67
2018-11-23T12:30:58.376Z,20.23
2018-11-23T12:33:02.107Z,21.10
2018-11-23T12:35:07.456Z,23.30
2018-11-23T12:37:11.395Z,21.47
2018-11-23T12:39:15.157Z,21.73
2018-11-23T12:41:18.987Z,22.37
2018-11-23T12:43:22.817Z,22.83
2018-11-23T12:45:26.664Z,24.10
2018-11-23T12:47:30.531Z,29.23
2018-11-23T12:49:34.383Z,23.50
2018-11-23T12:51:38.167Z,22.00
2018-11-23T12:53:41.972Z,22.97
2018-11-23T12:55:45.799Z,23.00
2018-11-23T12:57:49.602Z,22.73
2018-11-23T12:59:53.436Z,20.93
2018-11-23T13:01:57.223Z,22.27
2018-11-23T13:04:00.959Z,23.37
2018-11-23T13:06:05.206Z,23.77
2018-11-23T13:08:09.014Z,24.47
2018-11-23T13:10:12.815Z,21.47
2018-11-23T13:12:16.663Z,21.03
2018-11-23T13:14:20.582Z,22.70
2018-11-23T13:16:24.327Z,21.20
2018-11-23T13:18:28.146Z,21.10
2018-11-23T13:20:31.943Z,23.60
2018-11-23T13:22:35.749Z,21.93
2018-11-23T13:24:39.559Z,20.80
2018-11-23T13:26:43.332Z,21.97
2018-11-23T13:28:47.172Z,21.03
2018-11-23T13:30:51.023Z,23.60
2018-11-23T13:32:54.918Z,21.93
2018-11-23T13:34:58.806Z,24.33
2018-11-23T13:37:02.633Z,24.10
2018-11-23T13:39:07.680Z,21.30
2018-11-23T13:41:11.433Z,22.73
2018-11-23T13:43:15.382Z,22.97
2018-11-23T13:45:20.700Z,22.30
2018-11-23T13:47:24.564Z,22.73
2018-11-23T13:49:28.610Z,24.70
2018-11-23T13:51:32.768Z,23.13
2018-11-23T13:53:36.563Z,24.67
2018-11-23T13:55:40.534Z,22.80
2018-11-23T13:57:44.386Z,23.40
2018-11-23T13:59:48.159Z,24.97
2018-11-23T14:01:51.919Z,24.90
2018-11-23T14:03:55.728Z,24.77
2018-11-23T14:05:59.611Z,25.20
2018-11-23T14:08:03.941Z,25.03
2018-11-23T14:10:10.850Z,25.47
2018-11-23T14:12:14.652Z,24.47
2018-11-23T14:14:18.389Z,23.60
2018-11-23T14:16:22.164Z,23.73
2018-11-23T14:18:26.079Z,24.37
2018-11-23T14:20:30.342Z,22.93
2018-11-23T14:22:34.150Z,23.43
2018-11-23T14:24:37.909Z,23.40
2018-11-23T14:26:41.762Z,22.43
2018-11-23T14:28:45.570Z,23.97
2018-11-23T14:30:49.320Z,22.90
2018-11-23T14:32:54.386Z,21.37
2018-11-23T14:34:58.223Z,21.87
2018-11-23T14:37:02.021Z,24.43
2018-11-23T14:40:30.163Z,23.20
2018-11-23T14:42:33.902Z,22.23
2018-11-23T14:44:37.781Z,24.30
2018-11-23T14:46:41.563Z,23.47
2018-11-23T14:48:45.447Z,23.93
2018-11-23T14:50:50.262Z,24.10
2018-11-23T14:52:55.150Z,23.50
2018-11-23T14:54:58.890Z,24.73
2018-11-23T14:57:02.743Z,25.13
2018-11-23T14:59:07.602Z,24.43
2018-11-23T15:01:11.407Z,24.43
2018-11-23T15:03:15.186Z,25.30
2018-11-23T15:05:19.520Z,24.13
2018-11-23T15:07:23.293Z,25.53
2018-11-23T15:09:28.048Z,24.97
2018-11-23T15:11:31.874Z,24.67
2018-11-23T15:13:35.742Z,24.90
2018-11-23T15:15:41.205Z,24.43
2018-11-23T15:17:46.132Z,25.27
2018-11-23T15:19:49.926Z,25.00
2018-11-23T15:21:53.916Z,23.47
2018-11-23T15:24:00.907Z,24.27
2018-11-23T15:26:01.607Z,24.10
2018-11-23T15:28:07.243Z,26.53
2018-11-23T15:30:16.608Z,24.70
2018-11-23T15:32:20.325Z,24.57
2018-11-23T15:34:24.138Z,25.60
2018-11-23T15:36:28.739Z,25.40
2018-11-23T15:38:32.541Z,26.67
2018-11-23T15:40:36.326Z,26.17
2018-11-23T15:42:40.190Z,24.80
2018-11-23T15:44:43.991Z,25.40
2018-11-23T15:46:48.783Z,25.77
2018-11-23T15:48:53.534Z,24.63
2018-11-23T15:50:59.575Z,25.77
2018-11-23T15:53:03.440Z,25.53
2018-11-23T15:55:11.743Z,25.20
2018-11-23T15:57:16.270Z,25.57
2018-11-23T15:59:20.186Z,24.53
2018-11-23T16:01:24.039Z,26.00
2018-11-23T16:03:28.498Z,24.97
2018-11-23T16:05:32.407Z,24.43
2018-11-23T16:07:36.258Z,26.53
2018-11-23T16:09:39.974Z,26.10
2018-11-23T16:11:43.760Z,27.70
2018-11-23T16:13:47.883Z,24.23
2018-11-23T16:15:51.627Z,27.07
2018-11-23T16:17:55.530Z,26.33
2018-11-23T16:19:59.426Z,25.97
2018-11-23T16:22:03.494Z,27.07
2018-11-23T16:24:07.783Z,25.73
2018-11-23T16:26:11.700Z,27.67
2018-11-23T16:28:15.492Z,25.37
2018-11-23T16:30:22.314Z,27.40
2018-11-23T16:32:26.227Z,26.80
2018-11-23T16:34:30.011Z,27.67
2018-11-23T16:36:33.884Z,26.77
2018-11-23T16:38:37.885Z,27.17
2018-11-23T16:40:43.218Z,26.10
2018-11-23T16:42:47.035Z,24.63
2018-11-23T16:44:50.898Z,23.50
2018-11-23T16:46:54.747Z,24.43
2018-11-23T16:48:58.924Z,25.67
2018-11-23T16:52:27.055Z,26.13
2018-11-23T16:54:30.845Z,24.77
2018-11-23T16:56:34.615Z,21.80
2018-11-23T16:58:38.431Z,24.33
2018-11-23T17:00:43.396Z,25.07
2018-11-23T17:02:47.134Z,23.50
2018-11-23T17:04:51.928Z,23.23
2018-11-23T17:06:55.759Z,23.07
2018-11-23T17:09:00.726Z,20.83
2018-11-23T17:11:05.639Z,20.30
2018-11-23T17:13:09.384Z,19.37
2018-11-23T17:15:15.508Z,17.40
2018-11-23T17:17:19.195Z,17.07
2018-11-23T17:19:22.904Z,16.37
2018-11-23T17:21:26.597Z,15.17
2018-11-23T17:23:30.335Z,16.13
2018-11-23T17:25:34.126Z,16.23
2018-11-23T17:27:37.755Z,15.87
2018-11-23T17:29:41.437Z,17.17
2018-11-23T17:31:45.115Z,17.63
2018-11-23T17:33:48.829Z,16.50
2018-11-23T17:35:52.555Z,16.83
2018-11-23T17:37:56.319Z,18.03
2018-11-23T17:39:59.921Z,17.97
2018-11-23T17:42:03.667Z,18.97
2018-11-23T17:44:07.822Z,19.53
2018-11-23T17:46:11.471Z,20.53
2018-11-23T17:48:15.155Z,21.37
2018-11-23T17:50:20.203Z,20.50
2018-11-23T17:52:23.879Z,21.57
2018-11-23T17:54:27.713Z,21.83
2018-11-23T17:56:31.319Z,24.07
2018-11-23T17:58:35.006Z,23.30
2018-11-23T18:00:39.672Z,24.60
2018-11-23T18:02:43.429Z,24.00
2018-11-23T18:04:47.436Z,23.50
2018-11-23T18:06:51.156Z,23.33
2018-11-23T18:08:54.731Z,23.53
2018-11-23T18:10:58.429Z,23.87
2018-11-23T18:13:02.600Z,22.50
2018-11-23T18:15:09.363Z,22.53
2018-11-23T18:17:13.996Z,23.60
2018-11-23T18:19:18.290Z,23.90
2018-11-23T18:21:21.871Z,22.80
2018-11-23T18:23:25.540Z,23.83
2018-11-23T18:25:33.755Z,21.53
2018-11-23T18:27:37.503Z,22.50
2018-11-23T18:29:41.163Z,25.63
2018-11-23T18:31:44.905Z,23.83
2018-11-23T18:33:48.560Z,22.03
2018-11-23T18:35:52.164Z,22.83
2018-11-23T18:37:56.713Z,22.67
2018-11-23T18:40:00.404Z,20.93
2018-11-23T18:42:04.051Z,22.50
2018-11-23T18:44:08.438Z,23.67
2018-11-23T18:46:12.059Z,21.27
2018-11-23T18:48:15.723Z,22.67
2018-11-23T18:50:19.560Z,21.43
2018-11-23T18:52:23.166Z,20.40
2018-11-23T18:54:26.766Z,20.07
2018-11-23T18:56:31.267Z,22.40
2018-11-23T18:58:34.909Z,20.00
2018-11-23T19:00:38.525Z,19.87
2018-11-23T19:02:46.166Z,19.63
2018-11-23T19:04:49.763Z,20.03
2018-11-23T19:06:53.354Z,20.87
2018-11-23T19:08:57.902Z,20.53
2018-11-23T19:11:01.504Z,20.23
2018-11-23T19:13:05.753Z,19.83
2018-11-23T19:15:11.203Z,19.87
2018-11-23T19:17:14.910Z,18.50
2018-11-23T19:19:18.505Z,19.37
2018-11-23T19:21:22.140Z,18.27
2018-11-23T19:23:25.884Z,18.27
2018-11-23T19:25:29.507Z,17.73
2018-11-23T19:27:33.324Z,17.47
2018-11-23T19:29:37.319Z,17.10
2018-11-23T19:31:40.895Z,18.70
2018-11-23T19:33:44.519Z,18.83
2018-11-23T19:35:48.132Z,18.23
2018-11-23T19:37:51.719Z,17.10
2018-11-23T19:39:55.387Z,18.33
2018-11-23T19:41:58.948Z,18.67
2018-11-23T19:44:03.145Z,17.70
2018-11-23T19:46:07.275Z,18.77
2018-11-23T19:48:10.924Z,18.13
2018-11-23T19:50:17.399Z,19.67
2018-11-23T19:52:21.471Z,17.93
2018-11-23T19:54:25.084Z,18.70
2018-11-23T19:56:29.495Z,18.03
2018-11-23T19:58:32.741Z,19.23
2018-11-23T20:00:36.780Z,18.37
2018-11-23T20:02:40.431Z,19.20
2018-11-23T20:04:44.046Z,19.43
2018-11-23T20:06:47.659Z,18.57
2018-11-23T20:08:51.255Z,17.97
2018-11-23T20:10:54.894Z,18.40
2018-11-23T20:12:58.658Z,18.93
2018-11-23T20:15:02.287Z,18.30
2018-11-23T20:17:06.143Z,17.83
2018-11-23T20:19:09.735Z,17.80
2018-11-23T20:21:13.376Z,18.47
2018-11-23T20:23:17.832Z,17.83
2018-11-23T20:25:22.664Z,17.53
2018-11-23T20:27:26.275Z,18.10
2018-11-23T20:29:29.939Z,19.63
2018-11-23T20:31:33.679Z,18.27
2018-11-23T20:33:37.408Z,18.07
2018-11-23T20:35:40.978Z,18.90
2018-11-23T20:37:44.673Z,17.77
2018-11-23T20:39:48.387Z,18.33
2018-11-23T20:41:52.129Z,18.37
2018-11-23T20:43:55.823Z,18.73
2018-11-23T20:45:59.437Z,17.03
2018-11-23T20:48:03.169Z,15.27
2018-11-23T20:50:08.604Z,18.70
2018-11-23T20:52:12.845Z,17.03
2018-11-23T20:54:16.575Z,17.40
2018-11-23T20:56:20.819Z,15.70
2018-11-23T20:58:24.383Z,17.57
2018-11-23T21:00:27.951Z,17.07
2018-11-23T21:02:32.138Z,17.30
2018-11-23T21:04:36.471Z,17.37
2018-11-23T21:06:40.083Z,17.20
2018-11-23T21:08:43.743Z,17.00
2018-11-23T21:10:47.897Z,17.73
2018-11-23T21:12:51.570Z,16.70
2018-11-23T21:14:55.147Z,17.57
2018-11-23T21:16:58.791Z,18.43
2018-11-23T21:19:02.419Z,18.33
2018-11-23T21:22:30.723Z,19.07
2018-11-23T21:24:34.389Z,17.47
2018-11-23T21:26:37.982Z,17.90
2018-11-23T21:28:42.320Z,18.10
2018-11-23T21:30:46.023Z,18.03
2018-11-23T21:32:49.924Z,18.77
2018-11-23T21:34:53.555Z,17.73
2018-11-23T21:36:59.068Z,19.10
2018-11-23T21:39:02.740Z,18.40
2018-11-23T21:41:06.483Z,17.17
2018-11-23T21:43:10.371Z,16.17
2018-11-23T21:45:16.943Z,16.80
2018-11-23T21:47:20.607Z,15.90
2018-11-23T21:49:24.306Z,16.07
2018-11-23T21:51:27.892Z,15.30
2018-11-23T21:53:32.379Z,16.60
2018-11-23T21:55:36.097Z,16.13
2018-11-23T21:57:39.704Z,16.00
2018-11-23T21:59:44.410Z,16.00
2018-11-23T22:01:48.699Z,16.50
2018-11-23T22:03:53.724Z,15.53
2018-11-23T22:05:57.352Z,16.87
2018-11-23T22:08:01.079Z,16.07
2018-11-23T22:10:09.703Z,16.43
2018-11-23T22:12:13.302Z,15.23
2018-11-23T22:14:16.943Z,17.00
2018-11-23T22:16:21.128Z,16.00
2018-11-23T22:18:24.854Z,15.97
2018-11-23T22:20:28.447Z,16.87
2018-11-23T22:22:32.179Z,16.47
2018-11-23T22:24:36.577Z,16.30
2018-11-23T22:26:40.723Z,16.43
2018-11-23T22:28:44.287Z,17.20
2018-11-23T22:30:47.884Z,16.37
2018-11-23T22:32:51.871Z,16.80
2018-11-23T22:34:55.471Z,16.43
2018-11-23T22:36:59.903Z,15.40
2018-11-23T22:39:04.091Z,16.17
2018-11-23T22:41:07.795Z,17.40
2018-11-23T22:43:11.582Z,15.97
2018-11-23T22:45:15.920Z,16.20
2018-11-23T22:47:19.491Z,16.07
2018-11-23T22:49:23.135Z,14.97
2018-11-23T22:51:27.563Z,15.67
2018-11-23T22:53:32.064Z,16.47
2018-11-23T22:55:36.080Z,14.87
2018-11-23T22:57:39.786Z,15.40
2018-11-23T22:59:43.351Z,15.70
2018-11-23T23:01:47.019Z,15.07
2018-11-23T23:03:50.727Z,15.80
2018-11-23T23:05:54.379Z,15.27
2018-11-23T23:07:57.999Z,16.63
2018-11-23T23:10:01.714Z,17.17
2018-11-23T23:12:05.756Z,16.90
2018-11-23T23:14:09.447Z,15.43
2018-11-23T23:16:13.223Z,16.57
2018-11-23T23:18:16.909Z,16.23
2018-11-23T23:20:22.905Z,16.37
2018-11-23T23:22:26.504Z,16.80
2018-11-23T23:24:30.823Z,18.03
2018-11-23T23:26:34.429Z,18.33
2018-11-23T23:28:38.424Z,18.17
2018-11-23T23:30:42.091Z,17.83
2018-11-23T23:32:46.532Z,18.30
2018-11-23T23:34:50.187Z,15.97
2018-11-23T23:36:53.791Z,17.10
2018-11-23T23:38:57.411Z,17.07
2018-11-23T23:41:01.171Z,16.60
2018-11-23T23:43:05.087Z,15.50
2018-11-23T23:45:10.948Z,17.13
2018-11-23T23:47:14.571Z,16.57
2018-11-23T23:49:18.127Z,16.87
2018-11-23T23:51:21.719Z,17.10
2018-11-23T23:53:25.451Z,16.17
2018-11-23T23:55:29.055Z,17.70
2018-11-23T23:57:32.896Z,16.53
2018-11-23T23:59:36.540Z,17.37
